sensor_id;sensor_type;location;lat;lon;timestamp;pressure;altitude;pressure_sealevel;temperature;humidity
28648;BME280;17137;51.494;-0.262;2023-04-21T00:00:10;50478.78;;;-145.72;93.07
28648;BME280;17137;51.494;-0.262;2023-04-21T00:00:40;50479.15;;;-145.72;92.87
28648;BME280;17137;51.494;-0.262;2023-04-21T00:01:11;50469.66;;;-145.72;92.61
28648;BME280;17137;51.494;-0.262;2023-04-21T00:01:41;50463.62;;;-145.72;91.98
28648;BME280;17137;51.494;-0.262;2023-04-21T00:02:11;50478.41;;;-145.72;91.69
28648;BME280;17137;51.494;-0.262;2023-04-21T00:02:42;50467.44;;;-145.72;91.46
28648;BME280;17137;51.494;-0.262;2023-04-21T00:03:12;50462.14;;;-145.72;91.11
28648;BME280;17137;51.494;-0.262;2023-04-21T00:03:42;50467.69;;;-145.72;90.98
28648;BME280;17137;51.494;-0.262;2023-04-21T00:04:12;50472.37;;;-145.72;91.38
28648;BME280;17137;51.494;-0.262;2023-04-21T00:04:43;50480.02;;;-145.72;93.01
28648;BME280;17137;51.494;-0.262;2023-04-21T00:05:13;50461.28;;;-145.72;92.47
28648;BME280;17137;51.494;-0.262;2023-04-21T00:05:43;50477.18;;;-145.72;92.44
28648;BME280;17137;51.494;-0.262;2023-04-21T00:06:14;50475.83;;;-145.72;92.44
28648;BME280;17137;51.494;-0.262;2023-04-21T00:06:44;50471.02;;;-145.72;92.24
28648;BME280;17137;51.494;-0.262;2023-04-21T00:07:14;50470.53;;;-145.72;91.98
28648;BME280;17137;51.494;-0.262;2023-04-21T00:07:45;50469.66;;;-145.72;91.97
28648;BME280;17137;51.494;-0.262;2023-04-21T00:08:16;50465.59;;;-145.72;91.85
28648;BME280;17137;51.494;-0.262;2023-04-21T00:08:46;50459.80;;;-145.72;91.96
28648;BME280;17137;51.494;-0.262;2023-04-21T00:09:17;50470.03;;;-145.72;91.94
28648;BME280;17137;51.494;-0.262;2023-04-21T00:09:47;50474.96;;;-145.72;92.11
28648;BME280;17137;51.494;-0.262;2023-04-21T00:10:17;50469.54;;;-145.72;91.69
28648;BME280;17137;51.494;-0.262;2023-04-21T00:10:48;50473.24;;;-145.72;90.98
28648;BME280;17137;51.494;-0.262;2023-04-21T00:11:18;50461.53;;;-145.72;90.78
28648;BME280;17137;51.494;-0.262;2023-04-21T00:11:49;50464.24;;;-145.72;90.95
28648;BME280;17137;51.494;-0.262;2023-04-21T00:12:19;50466.33;;;-145.72;91.12
28648;BME280;17137;51.494;-0.262;2023-04-21T00:12:49;50461.03;;;-145.72;90.89
28648;BME280;17137;51.494;-0.262;2023-04-21T00:13:19;50462.14;;;-145.72;90.57
28648;BME280;17137;51.494;-0.262;2023-04-21T00:13:50;50461.40;;;-145.72;90.96
28648;BME280;17137;51.494;-0.262;2023-04-21T00:14:20;50466.70;;;-145.72;91.81
28648;BME280;17137;51.494;-0.262;2023-04-21T00:14:50;50465.22;;;-145.72;92.00
28648;BME280;17137;51.494;-0.262;2023-04-21T00:15:20;50461.28;;;-145.72;91.67
28648;BME280;17137;51.494;-0.262;2023-04-21T00:15:51;50461.90;;;-145.72;91.33
28648;BME280;17137;51.494;-0.262;2023-04-21T00:16:21;50470.65;;;-145.72;91.50
28648;BME280;17137;51.494;-0.262;2023-04-21T00:16:51;50463.62;;;-145.72;91.49
28648;BME280;17137;51.494;-0.262;2023-04-21T00:17:21;50475.09;;;-145.72;92.90
28648;BME280;17137;51.494;-0.262;2023-04-21T00:17:52;50475.83;;;-145.72;92.82
28648;BME280;17137;51.494;-0.262;2023-04-21T00:18:22;50478.05;;;-145.72;92.66
28648;BME280;17137;51.494;-0.262;2023-04-21T00:18:52;50468.68;;;-145.72;91.98
28648;BME280;17137;51.494;-0.262;2023-04-21T00:19:22;50460.17;;;-145.72;91.58
28648;BME280;17137;51.494;-0.262;2023-04-21T00:19:53;50476.69;;;-145.72;91.99
28648;BME280;17137;51.494;-0.262;2023-04-21T00:20:31;50471.02;;;-145.72;92.37
28648;BME280;17137;51.494;-0.262;2023-04-21T00:21:02;50474.10;;;-145.72;92.23
28648;BME280;17137;51.494;-0.262;2023-04-21T00:21:32;50476.20;;;-145.72;92.64
28648;BME280;17137;51.494;-0.262;2023-04-21T00:22:02;50477.18;;;-145.72;92.60
28648;BME280;17137;51.494;-0.262;2023-04-21T00:22:33;50473.73;;;-145.72;92.44
28648;BME280;17137;51.494;-0.262;2023-04-21T00:23:03;50490.13;;;-145.72;93.18
28648;BME280;17137;51.494;-0.262;2023-04-21T00:23:33;50475.83;;;-145.72;93.32
28648;BME280;17137;51.494;-0.262;2023-04-21T00:24:04;50483.10;;;-145.72;93.72
28648;BME280;17137;51.494;-0.262;2023-04-21T00:24:35;50466.21;;;-145.72;93.15
28648;BME280;17137;51.494;-0.262;2023-04-21T00:25:06;50476.44;;;-145.72;93.85
28648;BME280;17137;51.494;-0.262;2023-04-21T00:25:36;50468.80;;;-145.72;93.30
28648;BME280;17137;51.494;-0.262;2023-04-21T00:26:07;50475.95;;;-145.72;93.18
28648;BME280;17137;51.494;-0.262;2023-04-21T00:26:37;50466.33;;;-145.72;93.06
28648;BME280;17137;51.494;-0.262;2023-04-21T00:27:07;50458.32;;;-145.72;92.97
28648;BME280;17137;51.494;-0.262;2023-04-21T00:27:38;50473.24;;;-145.72;93.25
28648;BME280;17137;51.494;-0.262;2023-04-21T00:28:08;50482.98;;;-145.72;93.12
28648;BME280;17137;51.494;-0.262;2023-04-21T00:28:38;50479.15;;;-145.72;93.23
28648;BME280;17137;51.494;-0.262;2023-04-21T00:29:08;50472.25;;;-145.72;92.85
28648;BME280;17137;51.494;-0.262;2023-04-21T00:29:38;50476.20;;;-145.72;92.83
28648;BME280;17137;51.494;-0.262;2023-04-21T00:30:09;50475.83;;;-145.72;92.69
28648;BME280;17137;51.494;-0.262;2023-04-21T00:30:40;50455.49;;;-145.72;92.58
28648;BME280;17137;51.494;-0.262;2023-04-21T00:31:10;50448.34;;;-145.72;91.92
28648;BME280;17137;51.494;-0.262;2023-04-21T00:31:40;50449.82;;;-145.72;91.52
28648;BME280;17137;51.494;-0.262;2023-04-21T00:32:11;50455.36;;;-145.72;91.30
28648;BME280;17137;51.494;-0.262;2023-04-21T00:32:41;50463.01;;;-145.72;91.24
28648;BME280;17137;51.494;-0.262;2023-04-21T00:33:11;50459.18;;;-145.72;91.25
28648;BME280;17137;51.494;-0.262;2023-04-21T00:33:42;50452.16;;;-145.72;90.87
28648;BME280;17137;51.494;-0.262;2023-04-21T00:34:12;50454.38;;;-145.72;90.97
28648;BME280;17137;51.494;-0.262;2023-04-21T00:34:42;50474.47;;;-145.72;91.29
28648;BME280;17137;51.494;-0.262;2023-04-21T00:35:12;50466.21;;;-145.72;91.25
28648;BME280;17137;51.494;-0.262;2023-04-21T00:35:43;50462.27;;;-145.72;91.64
28648;BME280;17137;51.494;-0.262;2023-04-21T00:36:13;50462.88;;;-145.72;91.93
28648;BME280;17137;51.494;-0.262;2023-04-21T00:36:43;50467.32;;;-145.72;91.75
28648;BME280;17137;51.494;-0.262;2023-04-21T00:37:13;50460.17;;;-145.72;91.57
28648;BME280;17137;51.494;-0.262;2023-04-21T00:37:44;50454.62;;;-145.72;91.30
28648;BME280;17137;51.494;-0.262;2023-04-21T00:38:14;50451.54;;;-145.72;91.13
28648;BME280;17137;51.494;-0.262;2023-04-21T00:38:44;50452.77;;;-145.72;90.86
28648;BME280;17137;51.494;-0.262;2023-04-21T00:39:14;50453.64;;;-145.72;90.45
28648;BME280;17137;51.494;-0.262;2023-04-21T00:39:45;50451.29;;;-145.72;91.15
28648;BME280;17137;51.494;-0.262;2023-04-21T00:40:15;50450.80;;;-145.72;91.06
28648;BME280;17137;51.494;-0.262;2023-04-21T00:40:45;50441.93;;;-145.72;90.83
28648;BME280;17137;51.494;-0.262;2023-04-21T00:41:16;50456.23;;;-145.72;91.14
28648;BME280;17137;51.494;-0.262;2023-04-21T00:41:46;50455.12;;;-145.72;91.05
28648;BME280;17137;51.494;-0.262;2023-04-21T00:42:16;50467.81;;;-145.72;91.11
28648;BME280;17137;51.494;-0.262;2023-04-21T00:42:46;50454.01;;;-145.72;91.08
28648;BME280;17137;51.494;-0.262;2023-04-21T00:43:17;50457.70;;;-145.72;91.12
28648;BME280;17137;51.494;-0.262;2023-04-21T00:44:05;50454.38;;;-145.72;90.84
28648;BME280;17137;51.494;-0.262;2023-04-21T00:44:35;50452.65;;;-145.72;90.48
28648;BME280;17137;51.494;-0.262;2023-04-21T00:45:07;50451.54;;;-145.72;90.32
28648;BME280;17137;51.494;-0.262;2023-04-21T00:45:37;50451.42;;;-145.72;90.29
28648;BME280;17137;51.494;-0.262;2023-04-21T00:46:08;50445.87;;;-145.72;89.97
28648;BME280;17137;51.494;-0.262;2023-04-21T00:46:38;50448.83;;;-145.72;89.79
28648;BME280;17137;51.494;-0.262;2023-04-21T00:47:08;50439.58;;;-145.72;89.82
28648;BME280;17137;51.494;-0.262;2023-04-21T00:47:38;50451.54;;;-145.72;89.60
28648;BME280;17137;51.494;-0.262;2023-04-21T00:48:10;50452.77;;;-145.72;90.10
28648;BME280;17137;51.494;-0.262;2023-04-21T00:48:40;50458.94;;;-145.72;90.46
28648;BME280;17137;51.494;-0.262;2023-04-21T00:49:11;50459.43;;;-145.72;90.46
28648;BME280;17137;51.494;-0.262;2023-04-21T00:49:41;50456.35;;;-145.72;90.95
28648;BME280;17137;51.494;-0.262;2023-04-21T00:50:12;50465.10;;;-145.72;91.51
28648;BME280;17137;51.494;-0.262;2023-04-21T00:50:42;50447.35;;;-145.72;91.07
28648;BME280;17137;51.494;-0.262;2023-04-21T00:51:13;50455.49;;;-145.72;91.03
28648;BME280;17137;51.494;-0.262;2023-04-21T00:51:44;50457.09;;;-145.72;91.39
28648;BME280;17137;51.494;-0.262;2023-04-21T00:52:16;50454.25;;;-145.72;90.80
28648;BME280;17137;51.494;-0.262;2023-04-21T00:52:47;50461.40;;;-145.72;91.14
28648;BME280;17137;51.494;-0.262;2023-04-21T00:53:18;50447.84;;;-145.72;90.95
28648;BME280;17137;51.494;-0.262;2023-04-21T00:53:49;50454.13;;;-145.72;90.81
28648;BME280;17137;51.494;-0.262;2023-04-21T00:54:20;50457.70;;;-145.72;90.60
28648;BME280;17137;51.494;-0.262;2023-04-21T00:54:53;50462.88;;;-145.72;91.83
28648;BME280;17137;51.494;-0.262;2023-04-21T00:55:24;50469.91;;;-145.72;92.36
28648;BME280;17137;51.494;-0.262;2023-04-21T00:55:54;50467.07;;;-145.72;91.79
28648;BME280;17137;51.494;-0.262;2023-04-21T00:56:25;50460.05;;;-145.72;91.29
28648;BME280;17137;51.494;-0.262;2023-04-21T00:56:57;50472.25;;;-145.72;90.83
28648;BME280;17137;51.494;-0.262;2023-04-21T00:57:28;50461.90;;;-145.72;90.82
28648;BME280;17137;51.494;-0.262;2023-04-21T00:58:02;50457.46;;;-145.72;91.05
28648;BME280;17137;51.494;-0.262;2023-04-21T00:58:32;50457.95;;;-145.72;91.53
28648;BME280;17137;51.494;-0.262;2023-04-21T00:59:04;50476.32;;;-145.72;92.25
28648;BME280;17137;51.494;-0.262;2023-04-21T00:59:34;50461.77;;;-145.72;92.12
28648;BME280;17137;51.494;-0.262;2023-04-21T01:00:06;50472.74;;;-145.72;92.14
28648;BME280;17137;51.494;-0.262;2023-04-21T01:00:37;50472.37;;;-145.72;92.12
28648;BME280;17137;51.494;-0.262;2023-04-21T01:01:07;50469.54;;;-145.72;91.72
28648;BME280;17137;51.494;-0.262;2023-04-21T01:01:37;50468.06;;;-145.72;91.33
28648;BME280;17137;51.494;-0.262;2023-04-21T01:02:08;50464.98;;;-145.72;91.50
28648;BME280;17137;51.494;-0.262;2023-04-21T01:02:39;50479.28;;;-145.72;92.10
28648;BME280;17137;51.494;-0.262;2023-04-21T01:03:09;50465.84;;;-145.72;92.06
28648;BME280;17137;51.494;-0.262;2023-04-21T01:03:40;50463.13;;;-145.72;91.88
28648;BME280;17137;51.494;-0.262;2023-04-21T01:04:11;50476.07;;;-145.72;91.85
28648;BME280;17137;51.494;-0.262;2023-04-21T01:04:41;50469.42;;;-145.72;92.12
28648;BME280;17137;51.494;-0.262;2023-04-21T01:05:11;50470.53;;;-145.72;92.21
28648;BME280;17137;51.494;-0.262;2023-04-21T01:05:42;50471.76;;;-145.72;92.09
28648;BME280;17137;51.494;-0.262;2023-04-21T01:06:12;50472.25;;;-145.72;92.03
28648;BME280;17137;51.494;-0.262;2023-04-21T01:06:42;50468.31;;;-145.72;92.09
28648;BME280;17137;51.494;-0.262;2023-04-21T01:07:13;50466.95;;;-145.72;91.92
28648;BME280;17137;51.494;-0.262;2023-04-21T01:07:43;50460.79;;;-145.72;91.64
28648;BME280;17137;51.494;-0.262;2023-04-21T01:08:14;50457.33;;;-145.72;91.60
28648;BME280;17137;51.494;-0.262;2023-04-21T01:08:45;50465.84;;;-145.72;90.96
28648;BME280;17137;51.494;-0.262;2023-04-21T01:09:16;50457.70;;;-145.72;91.22
28648;BME280;17137;51.494;-0.262;2023-04-21T01:09:46;50457.09;;;-145.72;90.80
28648;BME280;17137;51.494;-0.262;2023-04-21T01:10:16;50472.50;;;-145.72;90.85
28648;BME280;17137;51.494;-0.262;2023-04-21T01:10:47;50467.69;;;-145.72;91.27
28648;BME280;17137;51.494;-0.262;2023-04-21T01:11:17;50465.72;;;-145.72;90.94
28648;BME280;17137;51.494;-0.262;2023-04-21T01:12:00;50467.69;;;-145.72;90.83
28648;BME280;17137;51.494;-0.262;2023-04-21T01:12:31;50442.79;;;-145.72;90.58
28648;BME280;17137;51.494;-0.262;2023-04-21T01:13:01;50466.09;;;-145.72;90.74
28648;BME280;17137;51.494;-0.262;2023-04-21T01:13:31;50463.01;;;-145.72;90.48
28648;BME280;17137;51.494;-0.262;2023-04-21T01:14:02;50468.80;;;-145.72;90.14
28648;BME280;17137;51.494;-0.262;2023-04-21T01:14:32;50458.20;;;-145.72;89.96
28648;BME280;17137;51.494;-0.262;2023-04-21T01:15:03;50461.40;;;-145.72;89.76
28648;BME280;17137;51.494;-0.262;2023-04-21T01:15:33;50463.75;;;-145.72;89.65
28648;BME280;17137;51.494;-0.262;2023-04-21T01:16:05;50463.50;;;-145.72;89.46
28648;BME280;17137;51.494;-0.262;2023-04-21T01:16:36;50458.44;;;-145.72;89.48
28648;BME280;17137;51.494;-0.262;2023-04-21T01:17:06;50453.88;;;-145.72;89.65
28648;BME280;17137;51.494;-0.262;2023-04-21T01:17:37;50460.05;;;-145.72;89.41
28648;BME280;17137;51.494;-0.262;2023-04-21T01:18:07;50446.86;;;-145.72;89.47
28648;BME280;17137;51.494;-0.262;2023-04-21T01:18:37;50452.53;;;-145.72;89.70
28648;BME280;17137;51.494;-0.262;2023-04-21T01:19:08;50437.49;;;-145.72;89.31
28648;BME280;17137;51.494;-0.262;2023-04-21T01:19:40;50445.62;;;-145.72;89.51
28648;BME280;17137;51.494;-0.262;2023-04-21T01:20:13;50457.46;;;-145.72;89.40
28648;BME280;17137;51.494;-0.262;2023-04-21T01:20:43;50454.99;;;-145.72;89.69
28648;BME280;17137;51.494;-0.262;2023-04-21T01:21:14;50471.02;;;-145.72;89.91
28648;BME280;17137;51.494;-0.262;2023-04-21T01:21:45;50459.06;;;-145.72;90.46
28648;BME280;17137;51.494;-0.262;2023-04-21T01:22:15;50461.65;;;-145.72;90.27
28648;BME280;17137;51.494;-0.262;2023-04-21T01:22:45;50461.16;;;-145.72;90.42
28648;BME280;17137;51.494;-0.262;2023-04-21T01:23:16;50452.53;;;-145.72;90.09
28648;BME280;17137;51.494;-0.262;2023-04-21T01:23:46;50451.91;;;-145.72;90.11
28648;BME280;17137;51.494;-0.262;2023-04-21T01:24:16;50464.61;;;-145.72;90.07
28648;BME280;17137;51.494;-0.262;2023-04-21T01:24:47;50463.99;;;-145.72;90.07
28648;BME280;17137;51.494;-0.262;2023-04-21T01:25:23;50459.80;;;-145.72;90.28
28648;BME280;17137;51.494;-0.262;2023-04-21T01:25:53;50461.77;;;-145.72;90.22
28648;BME280;17137;51.494;-0.262;2023-04-21T01:26:24;50452.16;;;-145.72;90.35
28648;BME280;17137;51.494;-0.262;2023-04-21T01:26:59;50471.26;;;-145.72;90.70
28648;BME280;17137;51.494;-0.262;2023-04-21T01:27:30;50463.38;;;-145.72;90.72
28648;BME280;17137;51.494;-0.262;2023-04-21T01:28:00;50456.10;;;-145.72;90.81
28648;BME280;17137;51.494;-0.262;2023-04-21T01:28:31;50463.13;;;-145.72;91.38
28648;BME280;17137;51.494;-0.262;2023-04-21T01:29:01;50475.95;;;-145.72;91.23
28648;BME280;17137;51.494;-0.262;2023-04-21T01:29:32;50464.98;;;-145.72;90.99
28648;BME280;17137;51.494;-0.262;2023-04-21T01:30:06;50461.40;;;-145.72;91.46
28648;BME280;17137;51.494;-0.262;2023-04-21T01:30:36;50464.85;;;-145.72;91.57
28648;BME280;17137;51.494;-0.262;2023-04-21T01:31:07;50462.27;;;-145.72;91.98
28648;BME280;17137;51.494;-0.262;2023-04-21T01:31:37;50458.32;;;-145.72;91.65
28648;BME280;17137;51.494;-0.262;2023-04-21T01:32:10;50464.73;;;-145.72;91.22
28648;BME280;17137;51.494;-0.262;2023-04-21T01:32:41;50470.65;;;-145.72;91.64
28648;BME280;17137;51.494;-0.262;2023-04-21T01:33:11;50469.79;;;-145.72;91.23
28648;BME280;17137;51.494;-0.262;2023-04-21T01:33:42;50469.29;;;-145.72;90.69
28648;BME280;17137;51.494;-0.262;2023-04-21T01:34:17;50463.13;;;-145.72;90.46
28648;BME280;17137;51.494;-0.262;2023-04-21T01:34:48;50454.62;;;-145.72;90.23
28648;BME280;17137;51.494;-0.262;2023-04-21T01:35:19;50454.99;;;-145.72;90.14
28648;BME280;17137;51.494;-0.262;2023-04-21T01:35:49;50465.59;;;-145.72;90.61
28648;BME280;17137;51.494;-0.262;2023-04-21T01:36:20;50455.49;;;-145.72;90.81
28648;BME280;17137;51.494;-0.262;2023-04-21T01:36:50;50455.49;;;-145.72;90.77
28648;BME280;17137;51.494;-0.262;2023-04-21T01:37:22;50455.73;;;-145.72;90.99
28648;BME280;17137;51.494;-0.262;2023-04-21T01:37:58;50461.53;;;-145.72;90.67
28648;BME280;17137;51.494;-0.262;2023-04-21T01:38:28;50450.68;;;-145.72;90.49
28648;BME280;17137;51.494;-0.262;2023-04-21T01:38:58;50453.64;;;-145.72;90.49
28648;BME280;17137;51.494;-0.262;2023-04-21T01:39:29;50456.97;;;-145.72;90.45
28648;BME280;17137;51.494;-0.262;2023-04-21T01:40:01;50460.91;;;-145.72;91.00
28648;BME280;17137;51.494;-0.262;2023-04-21T01:40:32;50448.71;;;-145.72;90.65
28648;BME280;17137;51.494;-0.262;2023-04-21T01:41:03;50461.90;;;-145.72;90.93
28648;BME280;17137;51.494;-0.262;2023-04-21T01:41:33;50462.39;;;-145.72;91.57
28648;BME280;17137;51.494;-0.262;2023-04-21T01:42:03;50451.66;;;-145.72;91.37
28648;BME280;17137;51.494;-0.262;2023-04-21T01:42:35;50459.18;;;-145.72;90.81
28648;BME280;17137;51.494;-0.262;2023-04-21T01:43:07;50460.29;;;-145.72;90.47
28648;BME280;17137;51.494;-0.262;2023-04-21T01:43:37;50452.77;;;-145.72;90.33
28648;BME280;17137;51.494;-0.262;2023-04-21T01:44:07;50444.14;;;-145.72;90.07
28648;BME280;17137;51.494;-0.262;2023-04-21T01:44:38;50436.13;;;-145.72;89.93
28648;BME280;17137;51.494;-0.262;2023-04-21T01:45:09;50454.01;;;-145.72;89.72
28648;BME280;17137;51.494;-0.262;2023-04-21T01:45:40;50454.75;;;-145.72;90.17
28648;BME280;17137;51.494;-0.262;2023-04-21T01:46:10;50460.91;;;-145.72;90.28
28648;BME280;17137;51.494;-0.262;2023-04-21T01:46:41;50451.79;;;-145.72;90.40
28648;BME280;17137;51.494;-0.262;2023-04-21T01:47:11;50455.12;;;-145.72;90.44
28648;BME280;17137;51.494;-0.262;2023-04-21T01:47:42;50453.39;;;-145.72;90.19
28648;BME280;17137;51.494;-0.262;2023-04-21T01:48:12;50451.66;;;-145.72;90.28
28648;BME280;17137;51.494;-0.262;2023-04-21T01:48:47;50464.98;;;-145.72;90.74
28648;BME280;17137;51.494;-0.262;2023-04-21T01:49:17;50465.22;;;-145.72;90.60
28648;BME280;17137;51.494;-0.262;2023-04-21T01:49:48;50467.94;;;-145.72;90.68
28648;BME280;17137;51.494;-0.262;2023-04-21T01:50:18;50464.36;;;-145.72;90.26
28648;BME280;17137;51.494;-0.262;2023-04-21T01:50:48;50466.95;;;-145.72;90.03
28648;BME280;17137;51.494;-0.262;2023-04-21T01:51:19;50446.49;;;-145.72;89.79
28648;BME280;17137;51.494;-0.262;2023-04-21T01:51:49;50456.10;;;-145.72;90.04
28648;BME280;17137;51.494;-0.262;2023-04-21T01:52:20;50458.32;;;-145.72;89.91
28648;BME280;17137;51.494;-0.262;2023-04-21T01:52:55;50455.36;;;-145.72;90.72
28648;BME280;17137;51.494;-0.262;2023-04-21T01:53:25;50471.14;;;-145.72;90.39
28648;BME280;17137;51.494;-0.262;2023-04-21T01:53:55;50476.81;;;-145.72;90.20
28648;BME280;17137;51.494;-0.262;2023-04-21T01:54:26;50463.01;;;-145.72;90.45
28648;BME280;17137;51.494;-0.262;2023-04-21T01:54:56;50474.59;;;-145.72;91.14
28648;BME280;17137;51.494;-0.262;2023-04-21T01:55:27;50465.35;;;-145.72;90.64
28648;BME280;17137;51.494;-0.262;2023-04-21T01:55:57;50464.36;;;-145.72;90.34
28648;BME280;17137;51.494;-0.262;2023-04-21T01:56:27;50467.20;;;-145.72;90.95
28648;BME280;17137;51.494;-0.262;2023-04-21T01:56:57;50474.22;;;-145.72;91.35
28648;BME280;17137;51.494;-0.262;2023-04-21T01:57:28;50488.65;;;-145.72;91.70
28648;BME280;17137;51.494;-0.262;2023-04-21T01:57:58;50472.13;;;-145.72;92.39
28648;BME280;17137;51.494;-0.262;2023-04-21T01:58:28;50483.35;;;-145.72;92.46
28648;BME280;17137;51.494;-0.262;2023-04-21T01:58:59;50472.37;;;-145.72;92.32
28648;BME280;17137;51.494;-0.262;2023-04-21T01:59:29;50474.72;;;-145.72;92.63
28648;BME280;17137;51.494;-0.262;2023-04-21T01:59:59;50476.32;;;-145.72;92.53
28648;BME280;17137;51.494;-0.262;2023-04-21T02:00:29;50469.42;;;-145.72;92.25
28648;BME280;17137;51.494;-0.262;2023-04-21T02:01:00;50472.74;;;-145.72;92.62
28648;BME280;17137;51.494;-0.262;2023-04-21T02:01:30;50475.21;;;-145.72;92.76
28648;BME280;17137;51.494;-0.262;2023-04-21T02:02:00;50474.59;;;-145.72;92.26
28648;BME280;17137;51.494;-0.262;2023-04-21T02:02:30;50468.80;;;-145.72;92.10
28648;BME280;17137;51.494;-0.262;2023-04-21T02:03:01;50483.96;;;-145.72;92.46
28648;BME280;17137;51.494;-0.262;2023-04-21T02:03:31;50480.88;;;-145.72;92.81
28648;BME280;17137;51.494;-0.262;2023-04-21T02:04:02;50490.99;;;-145.72;93.08
28648;BME280;17137;51.494;-0.262;2023-04-21T02:04:32;50486.55;;;-145.72;93.34
28648;BME280;17137;51.494;-0.262;2023-04-21T02:05:03;50471.88;;;-145.72;92.98
28648;BME280;17137;51.494;-0.262;2023-04-21T02:05:33;50478.17;;;-145.72;92.35
28648;BME280;17137;51.494;-0.262;2023-04-21T02:06:04;50477.92;;;-145.72;92.09
28648;BME280;17137;51.494;-0.262;2023-04-21T02:06:35;50485.19;;;-145.72;92.23
28648;BME280;17137;51.494;-0.262;2023-04-21T02:07:05;50478.17;;;-145.72;92.71
28648;BME280;17137;51.494;-0.262;2023-04-21T02:07:35;50463.38;;;-145.72;92.53
28648;BME280;17137;51.494;-0.262;2023-04-21T02:08:05;50477.06;;;-145.72;92.30
28648;BME280;17137;51.494;-0.262;2023-04-21T02:08:36;50478.66;;;-145.72;92.40
28648;BME280;17137;51.494;-0.262;2023-04-21T02:09:06;50468.06;;;-145.72;92.20
28648;BME280;17137;51.494;-0.262;2023-04-21T02:09:37;50482.85;;;-145.72;91.98
28648;BME280;17137;51.494;-0.262;2023-04-21T02:10:08;50470.90;;;-145.72;92.08
28648;BME280;17137;51.494;-0.262;2023-04-21T02:10:39;50482.36;;;-145.72;92.66
28648;BME280;17137;51.494;-0.262;2023-04-21T02:11:09;50500.85;;;-145.72;93.31
28648;BME280;17137;51.494;-0.262;2023-04-21T02:11:39;50490.00;;;-145.72;93.46
28648;BME280;17137;51.494;-0.262;2023-04-21T02:12:10;50476.20;;;-145.72;93.20
28648;BME280;17137;51.494;-0.262;2023-04-21T02:12:40;50484.21;;;-145.72;92.87
28648;BME280;17137;51.494;-0.262;2023-04-21T02:13:10;50483.10;;;-145.72;92.87
28648;BME280;17137;51.494;-0.262;2023-04-21T02:13:40;50478.29;;;-145.72;93.65
28648;BME280;17137;51.494;-0.262;2023-04-21T02:14:11;50481.74;;;-145.72;92.93
28648;BME280;17137;51.494;-0.262;2023-04-21T02:14:41;50491.85;;;-145.72;92.66
28648;BME280;17137;51.494;-0.262;2023-04-21T02:15:11;50468.31;;;-145.72;92.22
28648;BME280;17137;51.494;-0.262;2023-04-21T02:15:41;50480.02;;;-145.72;91.72
28648;BME280;17137;51.494;-0.262;2023-04-21T02:16:12;50481.37;;;-145.72;91.86
28648;BME280;17137;51.494;-0.262;2023-04-21T02:16:42;50473.85;;;-145.72;91.87
28648;BME280;17137;51.494;-0.262;2023-04-21T02:17:12;50475.95;;;-145.72;92.01
28648;BME280;17137;51.494;-0.262;2023-04-21T02:17:43;50482.24;;;-145.72;91.69
28648;BME280;17137;51.494;-0.262;2023-04-21T02:18:13;50481.99;;;-145.72;91.56
28648;BME280;17137;51.494;-0.262;2023-04-21T02:18:43;50474.35;;;-145.72;91.63
28648;BME280;17137;51.494;-0.262;2023-04-21T02:19:13;50467.44;;;-145.72;91.49
28648;BME280;17137;51.494;-0.262;2023-04-21T02:19:43;50468.06;;;-145.72;91.60
28648;BME280;17137;51.494;-0.262;2023-04-21T02:20:14;50482.11;;;-145.72;92.57
28648;BME280;17137;51.494;-0.262;2023-04-21T02:20:44;50485.19;;;-145.72;92.67
28648;BME280;17137;51.494;-0.262;2023-04-21T02:21:14;50483.10;;;-145.72;92.49
28648;BME280;17137;51.494;-0.262;2023-04-21T02:21:44;50481.13;;;-145.72;92.26
28648;BME280;17137;51.494;-0.262;2023-04-21T02:22:15;50468.31;;;-145.72;91.96
28648;BME280;17137;51.494;-0.262;2023-04-21T02:22:45;50462.51;;;-145.72;91.83
28648;BME280;17137;51.494;-0.262;2023-04-21T02:23:15;50471.88;;;-145.72;91.88
28648;BME280;17137;51.494;-0.262;2023-04-21T02:23:45;50473.61;;;-145.72;91.79
28648;BME280;17137;51.494;-0.262;2023-04-21T02:24:16;50477.55;;;-145.72;91.88
28648;BME280;17137;51.494;-0.262;2023-04-21T02:24:46;50469.29;;;-145.72;92.12
28648;BME280;17137;51.494;-0.262;2023-04-21T02:25:16;50466.46;;;-145.72;91.93
28648;BME280;17137;51.494;-0.262;2023-04-21T02:25:47;50470.28;;;-145.72;92.01
28648;BME280;17137;51.494;-0.262;2023-04-21T02:26:17;50476.69;;;-145.72;92.92
28648;BME280;17137;51.494;-0.262;2023-04-21T02:26:48;50483.96;;;-145.72;93.26
28648;BME280;17137;51.494;-0.262;2023-04-21T02:27:18;50472.62;;;-145.72;92.85
28648;BME280;17137;51.494;-0.262;2023-04-21T02:27:49;50474.10;;;-145.72;92.60
28648;BME280;17137;51.494;-0.262;2023-04-21T02:28:19;50481.13;;;-145.72;92.42
28648;BME280;17137;51.494;-0.262;2023-04-21T02:28:49;50485.81;;;-145.72;92.54
28648;BME280;17137;51.494;-0.262;2023-04-21T02:29:19;50462.27;;;-145.72;92.40
28648;BME280;17137;51.494;-0.262;2023-04-21T02:29:50;50469.42;;;-145.72;92.24
28648;BME280;17137;51.494;-0.262;2023-04-21T02:30:20;50476.69;;;-145.72;91.92
28648;BME280;17137;51.494;-0.262;2023-04-21T02:30:50;50474.10;;;-145.72;92.15
28648;BME280;17137;51.494;-0.262;2023-04-21T02:31:20;50468.43;;;-145.72;91.74
28648;BME280;17137;51.494;-0.262;2023-04-21T02:31:51;50477.80;;;-145.72;91.78
28648;BME280;17137;51.494;-0.262;2023-04-21T02:32:21;50460.42;;;-145.72;91.47
28648;BME280;17137;51.494;-0.262;2023-04-21T02:32:56;50460.05;;;-145.72;91.21
28648;BME280;17137;51.494;-0.262;2023-04-21T02:33:26;50467.57;;;-145.72;91.49
28648;BME280;17137;51.494;-0.262;2023-04-21T02:33:57;50463.50;;;-145.72;91.64
28648;BME280;17137;51.494;-0.262;2023-04-21T02:34:27;50476.32;;;-145.72;91.73
28648;BME280;17137;51.494;-0.262;2023-04-21T02:34:57;50477.55;;;-145.72;92.15
28648;BME280;17137;51.494;-0.262;2023-04-21T02:35:27;50474.10;;;-145.72;92.01
28648;BME280;17137;51.494;-0.262;2023-04-21T02:35:58;50468.80;;;-145.72;91.85
28648;BME280;17137;51.494;-0.262;2023-04-21T02:36:28;50486.06;;;-145.72;91.80